Time;durP1;ratioP1;P1;durP2;ratioP2;P2;SDS_P1;SDS_P2;PMS_P1;PMS_P2;Temp;Humidity;BMP_temperature;BMP_pressure;BME280_temperature;BME280_humidity;BME280_pressure;Samples;Min_cycle;Max_cycle;Signal;HPM_P1;HPM_P2
2023/04/11 00:00:28;;;;;;;1.98;1.10;;;14.00;99.90;;;;;;4991910;28;20030;-72
2023/04/11 00:02:58;;;;;;;1.73;1.00;;;13.80;99.90;;;;;;4991966;28;20034;-72
2023/04/11 00:05:25;;;;;;;1.52;1.20;;;13.70;99.90;;;;;;4993129;28;20424;-71
2023/04/11 00:07:51;;;;;;;5.70;1.27;;;13.60;99.90;;;;;;4992352;28;20057;-72
2023/04/11 00:10:16;;;;;;;3.45;1.00;;;13.50;99.90;;;;;;4991983;28;20412;-72
2023/04/11 00:12:42;;;;;;;4.35;1.20;;;13.50;99.90;;;;;;4992130;28;20038;-71
2023/04/11 00:15:08;;;;;;;2.00;1.02;;;13.40;99.90;;;;;;4991893;28;20064;-72
2023/04/11 00:17:36;;;;;;;4.25;1.45;;;13.30;99.90;;;;;;4992564;28;20084;-71
2023/04/11 00:20:06;;;;;;;1.95;1.30;;;13.20;99.90;;;;;;4993059;28;20065;-71
2023/04/11 00:22:34;;;;;;;1.20;0.85;;;13.10;99.90;;;;;;4992446;28;20034;-72
2023/04/11 00:24:59;;;;;;;2.22;0.95;;;13.10;99.90;;;;;;4992763;28;20384;-72
2023/04/11 00:27:25;;;;;;;1.58;0.80;;;13.10;99.90;;;;;;4992723;28;20475;-71
2023/04/11 00:29:51;;;;;;;3.40;1.10;;;13.10;99.90;;;;;;4990812;28;20419;-72
2023/04/11 00:32:17;;;;;;;3.58;1.30;;;13.00;99.90;;;;;;4992902;28;20034;-72
2023/04/11 00:34:43;;;;;;;3.22;1.20;;;13.00;99.90;;;;;;4990911;28;20030;-71
2023/04/11 00:37:09;;;;;;;1.65;1.00;;;12.90;99.90;;;;;;4991493;28;20026;-72
2023/04/11 00:39:34;;;;;;;1.73;1.20;;;12.90;99.90;;;;;;4990731;28;20030;-72
2023/04/11 00:42:05;;;;;;;2.38;1.10;;;12.90;99.90;;;;;;4992821;28;20031;-72
2023/04/11 00:44:31;;;;;;;2.85;1.20;;;12.80;99.90;;;;;;4991745;28;20030;-71
2023/04/11 00:46:58;;;;;;;2.22;1.00;;;12.80;99.90;;;;;;4992795;28;20456;-71
2023/04/11 00:49:24;;;;;;;2.10;1.02;;;12.80;99.90;;;;;;4991508;28;20486;-71
2023/04/11 00:51:49;;;;;;;2.85;1.17;;;12.80;99.90;;;;;;4990880;28;20117;-71
2023/04/11 00:54:15;;;;;;;2.05;1.13;;;12.80;99.90;;;;;;4991496;28;20068;-72
2023/04/11 00:56:42;;;;;;;1.15;0.82;;;12.70;99.90;;;;;;4992202;28;20034;-71
2023/04/11 00:59:08;;;;;;;2.05;0.90;;;12.60;99.90;;;;;;4991370;28;20030;-72
2023/04/11 01:01:35;;;;;;;3.33;0.90;;;12.50;99.90;;;;;;4992078;28;20026;-72
2023/04/11 01:04:01;;;;;;;1.20;0.63;;;12.40;99.90;;;;;;4991348;28;20061;-72
2023/04/11 01:06:29;;;;;;;2.20;0.90;;;12.40;99.90;;;;;;4991336;28;20034;-72
2023/04/11 01:08:56;;;;;;;1.38;0.73;;;12.40;99.90;;;;;;4994258;28;20027;-72
2023/04/11 01:11:22;;;;;;;2.78;0.70;;;12.40;99.90;;;;;;4996184;28;20044;-72
2023/04/11 01:13:49;;;;;;;1.58;0.90;;;12.30;99.90;;;;;;4994268;28;20028;-72
2023/04/11 01:16:20;;;;;;;2.30;1.05;;;12.40;99.90;;;;;;4995755;28;20030;-72
2023/04/11 01:18:48;;;;;;;2.55;1.00;;;12.30;99.90;;;;;;4994260;28;20034;-72
2023/04/11 01:21:16;;;;;;;3.13;1.70;;;12.20;99.90;;;;;;4995989;28;20035;-72
2023/04/11 01:23:41;;;;;;;1.38;0.80;;;12.20;99.90;;;;;;4994120;28;20022;-72
2023/04/11 01:26:07;;;;;;;0.70;0.60;;;12.20;99.90;;;;;;4996297;28;20034;-72
2023/04/11 01:28:32;;;;;;;0.93;0.55;;;12.30;99.90;;;;;;4994641;28;20089;-72
2023/04/11 01:30:58;;;;;;;1.70;0.82;;;12.30;99.90;;;;;;4994895;28;20030;-71
2023/04/11 01:33:24;;;;;;;1.67;0.50;;;12.20;99.90;;;;;;4994633;28;20027;-72
2023/04/11 01:35:50;;;;;;;0.75;0.55;;;12.10;99.90;;;;;;4995157;28;20074;-72
2023/04/11 01:38:15;;;;;;;2.20;0.60;;;12.20;99.90;;;;;;4994390;28;20439;-71
2023/04/11 01:40:42;;;;;;;1.15;0.60;;;12.20;99.90;;;;;;4993761;28;20080;-71
2023/04/11 01:43:08;;;;;;;1.27;0.80;;;12.30;99.90;;;;;;4995203;28;20108;-72
2023/04/11 01:45:35;;;;;;;1.15;0.50;;;12.30;99.90;;;;;;4995575;28;20023;-72
2023/04/11 01:48:06;;;;;;;1.38;0.60;;;12.30;99.90;;;;;;4995512;28;20023;-71
2023/04/11 01:50:32;;;;;;;2.33;0.70;;;12.20;99.90;;;;;;4995635;28;20371;-72
2023/04/11 01:52:57;;;;;;;2.97;0.60;;;12.20;99.90;;;;;;4993575;28;20113;-72
2023/04/11 01:55:23;;;;;;;2.47;0.75;;;12.20;99.90;;;;;;4994061;28;20039;-72
2023/04/11 01:57:48;;;;;;;1.27;0.52;;;12.20;99.90;;;;;;4994498;28;20073;-71
2023/04/11 02:00:15;;;;;;;1.17;0.50;;;12.20;99.90;;;;;;4995368;28;20080;-72
2023/04/11 02:02:40;;;;;;;2.03;0.50;;;12.10;99.90;;;;;;4994678;28;20476;-72
2023/04/11 02:05:06;;;;;;;0.70;0.45;;;12.00;99.90;;;;;;4995192;28;20033;-72
2023/04/11 02:07:32;;;;;;;0.52;0.40;;;12.00;99.90;;;;;;4995196;28;20026;-72
2023/04/11 02:09:59;;;;;;;2.10;0.50;;;12.00;99.90;;;;;;4993303;28;20121;-72
2023/04/11 02:12:25;;;;;;;3.08;0.68;;;12.00;99.90;;;;;;4994766;28;20037;-72
2023/04/11 02:14:50;;;;;;;2.05;0.63;;;11.90;99.90;;;;;;4993244;28;20117;-71
2023/04/11 02:17:17;;;;;;;2.15;0.40;;;12.00;99.90;;;;;;4995016;28;20392;-72
2023/04/11 02:19:46;;;;;;;0.88;0.50;;;12.00;99.90;;;;;;4992287;28;20135;-71
2023/04/11 02:22:13;;;;;;;2.80;0.40;;;11.90;99.90;;;;;;4993629;28;20022;-72
2023/04/11 02:24:39;;;;;;;2.45;0.43;;;11.80;99.90;;;;;;4994246;28;20053;-72
2023/04/11 02:27:05;;;;;;;0.63;0.35;;;11.70;99.90;;;;;;4993563;28;20026;-72
2023/04/11 02:29:31;;;;;;;1.13;0.30;;;11.80;99.90;;;;;;4994501;28;20022;-72
2023/04/11 02:31:56;;;;;;;1.27;0.40;;;11.70;99.90;;;;;;4994124;28;20480;-72
2023/04/11 02:34:22;;;;;;;2.05;0.30;;;11.70;99.90;;;;;;4994677;28;20027;-71
2023/04/11 02:36:48;;;;;;;2.72;0.43;;;11.70;99.90;;;;;;4993677;28;20112;-71
2023/04/11 02:39:14;;;;;;;1.27;0.50;;;11.70;99.90;;;;;;4994594;28;20030;-72
2023/04/11 02:41:41;;;;;;;1.83;0.40;;;11.70;99.90;;;;;;4993978;28;20379;-72
2023/04/11 02:44:09;;;;;;;1.40;0.68;;;11.70;99.90;;;;;;4994701;28;20045;-71
2023/04/11 02:46:35;;;;;;;1.25;0.82;;;11.60;99.90;;;;;;4994484;28;20034;-71
2023/04/11 02:49:01;;;;;;;2.05;0.50;;;11.60;99.90;;;;;;4994027;28;20040;-72
2023/04/11 02:51:27;;;;;;;2.85;0.52;;;11.60;99.90;;;;;;4992973;28;20121;-72
2023/04/11 02:53:53;;;;;;;2.63;0.50;;;11.60;99.90;;;;;;4993667;28;20029;-72
2023/04/11 02:56:19;;;;;;;1.55;0.50;;;11.60;99.90;;;;;;4994193;28;20034;-71
2023/04/11 02:58:45;;;;;;;2.20;0.50;;;11.60;99.90;;;;;;4993594;28;20030;-71
2023/04/11 03:01:13;;;;;;;0.85;0.50;;;11.60;99.90;;;;;;4992906;28;20120;-72
2023/04/11 03:03:39;;;;;;;1.85;0.60;;;11.60;99.90;;;;;;4994141;28;20023;-72
2023/04/11 03:06:06;;;;;;;0.77;0.40;;;11.50;99.90;;;;;;4994151;28;20023;-71
2023/04/11 03:08:32;;;;;;;0.98;0.60;;;11.50;99.90;;;;;;4992934;28;20543;-72
2023/04/11 03:10:57;;;;;;;2.33;0.60;;;11.50;99.90;;;;;;4991963;28;20467;-72
2023/04/11 03:13:24;;;;;;;1.25;0.60;;;11.50;99.90;;;;;;4993997;28;20034;-71
2023/04/11 03:15:49;;;;;;;2.80;0.73;;;11.40;99.90;;;;;;4993209;28;20108;-71
2023/04/11 03:18:15;;;;;;;3.28;0.70;;;11.40;99.90;;;;;;4993848;28;20519;-72
2023/04/11 03:20:41;;;;;;;2.05;0.50;;;11.50;99.90;;;;;;4993256;28;20129;-72
2023/04/11 03:23:06;;;;;;;3.53;0.75;;;11.40;99.90;;;;;;4992460;28;20073;-72
2023/04/11 03:25:32;;;;;;;1.50;0.57;;;11.40;99.90;;;;;;4992561;28;20030;-72
2023/04/11 03:27:57;;;;;;;3.45;0.85;;;11.40;99.90;;;;;;4993077;28;20026;-71
2023/04/11 03:30:23;;;;;;;2.97;0.60;;;11.30;99.90;;;;;;4992380;28;20046;-72
2023/04/11 03:32:48;;;;;;;1.77;0.50;;;11.30;99.90;;;;;;4993001;28;20036;-71
2023/04/11 03:35:14;;;;;;;2.78;0.60;;;11.30;99.90;;;;;;4993505;28;20066;-72
2023/04/11 03:37:40;;;;;;;3.03;0.57;;;11.30;99.90;;;;;;4993528;28;20101;-72
2023/04/11 03:40:07;;;;;;;4.15;0.70;;;11.20;99.90;;;;;;4991590;28;20056;-71
2023/04/11 03:42:34;;;;;;;3.63;0.70;;;11.20;99.90;;;;;;4993410;28;20061;-72
2023/04/11 03:45:00;;;;;;;2.03;0.60;;;11.20;99.90;;;;;;4992825;28;20483;-72
2023/04/11 03:47:26;;;;;;;5.63;0.63;;;11.20;99.90;;;;;;4993424;28;20057;-71
2023/04/11 03:49:51;;;;;;;1.27;0.55;;;11.20;99.90;;;;;;4992724;28;20019;-71
2023/04/11 03:52:17;;;;;;;1.52;0.60;;;11.20;99.90;;;;;;4992017;28;20026;-72
2023/04/11 03:54:43;;;;;;;2.42;0.47;;;11.10;99.90;;;;;;4992705;28;20205;-71
2023/04/11 03:57:09;;;;;;;1.25;0.40;;;11.10;99.90;;;;;;4991965;28;20107;-72
2023/04/11 03:59:35;;;;;;;3.08;0.55;;;11.10;99.90;;;;;;4993256;28;20042;-71
2023/04/11 04:02:00;;;;;;;1.05;0.47;;;11.10;99.90;;;;;;4991352;28;20030;-72
2023/04/11 04:04:26;;;;;;;2.20;0.50;;;11.10;99.90;;;;;;4993182;28;20061;-72
2023/04/11 04:06:55;;;;;;;0.73;0.40;;;11.00;99.90;;;;;;4991259;28;20041;-71
2023/04/11 04:09:24;;;;;;;2.33;0.65;;;11.00;99.90;;;;;;4993142;28;20025;-71
2023/04/11 04:11:50;;;;;;;0.98;0.50;;;10.90;99.90;;;;;;4990945;28;20543;-71
2023/04/11 04:14:15;;;;;;;1.83;0.60;;;11.00;99.90;;;;;;4991769;28;20030;-71
2023/04/11 04:16:41;;;;;;;3.25;0.40;;;11.00;99.90;;;;;;4991742;28;20065;-71
2023/04/11 04:19:07;;;;;;;1.48;0.93;;;10.90;99.90;;;;;;4991246;28;20105;-72
2023/04/11 04:21:36;;;;;;;1.60;0.45;;;10.90;99.90;;;;;;4993085;28;20089;-72
2023/04/11 04:24:03;;;;;;;2.47;0.38;;;10.80;99.90;;;;;;4992450;28;20467;-72
2023/04/11 04:26:30;;;;;;;1.15;0.30;;;10.80;99.90;;;;;;4991712;28;20399;-72
2023/04/11 04:29:03;;;;;;;1.60;0.50;;;10.80;99.90;;;;;;4991092;28;20569;-71
2023/04/11 04:31:32;;;;;;;2.15;0.60;;;10.90;99.90;;;;;;4991916;28;20085;-72
2023/04/11 04:34:01;;;;;;;1.08;0.57;;;10.90;99.90;;;;;;4992321;28;20130;-72
2023/04/11 04:36:27;;;;;;;2.05;0.55;;;10.90;99.90;;;;;;4992766;28;20113;-71
2023/04/11 04:38:56;;;;;;;0.88;0.70;;;10.80;99.90;;;;;;4991966;28;20495;-71
2023/04/11 04:41:22;;;;;;;0.70;0.30;;;10.80;99.90;;;;;;4991491;28;20092;-72
2023/04/11 04:43:48;;;;;;;1.58;0.47;;;10.90;99.90;;;;;;4993206;28;20495;-71
2023/04/11 04:46:14;;;;;;;0.38;0.30;;;10.90;99.90;;;;;;4996773;28;20113;-72
2023/04/11 04:48:40;;;;;;;2.97;0.35;;;10.90;99.90;;;;;;4996572;28;20065;-72
2023/04/11 04:51:06;;;;;;;0.43;0.20;;;10.90;99.90;;;;;;4996301;28;20362;-71
2023/04/11 04:53:33;;;;;;;0.93;0.50;;;10.90;99.90;;;;;;4995258;28;20022;-72
2023/04/11 04:56:00;;;;;;;2.70;0.32;;;10.90;99.90;;;;;;4995821;28;20414;-72
2023/04/11 04:58:26;;;;;;;1.20;0.40;;;10.90;99.90;;;;;;4994865;28;20026;-71
2023/04/11 05:00:56;;;;;;;3.10;0.40;;;10.90;99.90;;;;;;4994512;28;20468;-71
2023/04/11 05:03:22;;;;;;;3.30;0.60;;;10.80;99.90;;;;;;4996357;28;20165;-71
2023/04/11 05:05:48;;;;;;;1.38;0.43;;;10.90;99.90;;;;;;4996115;28;20104;-71
2023/04/11 05:08:15;;;;;;;1.10;0.40;;;10.80;99.90;;;;;;4996285;28;20538;-71
2023/04/11 05:10:40;;;;;;;1.48;0.47;;;10.80;99.90;;;;;;4994849;28;20081;-71
2023/04/11 05:13:06;;;;;;;1.08;0.38;;;10.80;99.90;;;;;;4995612;28;20030;-71
2023/04/11 05:15:31;;;;;;;1.55;0.40;;;10.80;99.90;;;;;;4996080;28;20535;-71
2023/04/11 05:17:57;;;;;;;0.50;0.40;;;10.80;99.90;;;;;;4995560;28;20089;-72
2023/04/11 05:20:23;;;;;;;0.38;0.30;;;10.70;99.90;;;;;;4996355;28;20030;-71
2023/04/11 05:22:49;;;;;;;2.58;0.30;;;10.70;99.90;;;;;;4995387;28;20030;-72
2023/04/11 05:25:15;;;;;;;1.63;0.43;;;10.80;99.90;;;;;;4994670;28;20482;-72
2023/04/11 05:27:41;;;;;;;4.10;0.50;;;10.80;99.90;;;;;;4996024;28;20026;-71
2023/04/11 05:30:07;;;;;;;2.20;0.38;;;10.80;99.90;;;;;;4993983;28;20034;-71
2023/04/11 05:32:32;;;;;;;2.75;0.45;;;10.70;99.90;;;;;;4995855;28;20101;-71
2023/04/11 05:34:58;;;;;;;1.50;0.50;;;10.80;99.90;;;;;;4995231;28;20062;-71
2023/04/11 05:37:24;;;;;;;0.73;0.30;;;10.80;99.90;;;;;;4994319;28;20031;-71
2023/04/11 05:39:51;;;;;;;1.67;0.38;;;10.70;99.90;;;;;;4995084;28;20030;-71
2023/04/11 05:42:17;;;;;;;0.52;0.32;;;10.70;99.90;;;;;;4994048;28;20086;-72
2023/04/11 05:44:43;;;;;;;2.15;0.40;;;10.70;99.90;;;;;;4994355;28;20054;-72
2023/04/11 05:47:10;;;;;;;3.20;0.40;;;10.70;99.90;;;;;;4993672;28;20033;-72
2023/04/11 05:49:36;;;;;;;1.98;0.50;;;10.60;99.90;;;;;;4994263;28;20172;-72
2023/04/11 05:52:01;;;;;;;4.00;0.60;;;10.60;99.90;;;;;;4994819;28;20079;-72
2023/04/11 05:54:36;;;;;;;1.08;0.50;;;10.60;99.90;;;;;;4992972;28;20030;-72
2023/04/11 05:57:02;;;;;;;2.10;0.40;;;10.60;99.90;;;;;;4993469;28;20053;-72
2023/04/11 05:59:31;;;;;;;1.17;0.80;;;10.60;99.90;;;;;;4995303;28;20464;-72
2023/04/11 06:01:57;;;;;;;0.32;0.30;;;10.50;99.90;;;;;;4993465;28;20030;-71
2023/04/11 06:04:23;;;;;;;2.10;0.45;;;10.60;99.90;;;;;;4995638;28;20384;-72
2023/04/11 06:06:50;;;;;;;2.13;0.77;;;10.60;99.90;;;;;;4993870;28;20034;-72
2023/04/11 06:09:16;;;;;;;1.17;0.50;;;10.60;99.90;;;;;;4995128;28;20045;-71
2023/04/11 06:11:42;;;;;;;3.67;0.40;;;10.60;99.90;;;;;;4994862;28;20483;-71
2023/04/11 06:14:08;;;;;;;3.00;0.50;;;10.60;99.90;;;;;;4994395;28;20026;-72
2023/04/11 06:16:35;;;;;;;1.13;0.47;;;10.60;99.90;;;;;;4993702;28;20034;-71
2023/04/11 06:19:02;;;;;;;1.55;0.50;;;10.60;99.90;;;;;;4993999;28;20383;-71
2023/04/11 06:21:27;;;;;;;3.63;0.63;;;10.70;99.90;;;;;;4993826;28;20030;-72
2023/04/11 06:23:53;;;;;;;1.02;0.38;;;10.70;99.90;;;;;;4992942;28;20483;-72
2023/04/11 06:26:19;;;;;;;2.00;0.50;;;10.70;99.90;;;;;;4995057;28;20033;-72
2023/04/11 06:28:44;;;;;;;3.83;0.80;;;10.70;99.90;;;;;;4993691;28;20126;-72
2023/04/11 06:31:10;;;;;;;2.22;0.55;;;10.70;99.90;;;;;;4994423;28;20431;-71
2023/04/11 06:33:37;;;;;;;1.50;0.60;;;10.60;99.90;;;;;;4994684;28;20029;-72
2023/04/11 06:36:03;;;;;;;1.85;0.60;;;10.60;99.90;;;;;;4992757;28;20030;-71
2023/04/11 06:38:28;;;;;;;2.63;0.45;;;10.60;99.90;;;;;;4994797;28;20502;-71
2023/04/11 06:40:55;;;;;;;2.33;0.40;;;10.70;99.90;;;;;;4993933;28;20038;-71
2023/04/11 06:43:21;;;;;;;2.08;0.75;;;10.70;99.90;;;;;;4994516;28;20380;-73
2023/04/11 06:45:48;;;;;;;2.10;0.77;;;10.70;99.90;;;;;;4994467;28;20451;-72
2023/04/11 06:48:16;;;;;;;1.35;0.35;;;10.70;99.90;;;;;;4993829;28;20031;-71
2023/04/11 06:50:42;;;;;;;2.22;0.50;;;10.70;99.90;;;;;;4993099;28;20026;-72
2023/04/11 06:53:09;;;;;;;2.83;0.50;;;10.70;99.90;;;;;;4992462;28;20431;-71
2023/04/11 06:55:34;;;;;;;1.92;0.60;;;10.80;99.90;;;;;;4994152;28;20456;-71
2023/04/11 06:58:00;;;;;;;3.90;0.80;;;10.70;99.90;;;;;;4992326;28;20034;-71
2023/04/11 07:00:26;;;;;;;1.67;0.60;;;10.80;99.90;;;;;;4994114;28;20049;-72
2023/04/11 07:02:52;;;;;;;3.80;0.63;;;10.80;99.90;;;;;;4993005;28;20053;-72
2023/04/11 07:05:18;;;;;;;3.17;0.60;;;10.90;99.90;;;;;;4992049;28;20030;-71
2023/04/11 07:07:44;;;;;;;6.05;1.10;;;10.90;99.90;;;;;;4993670;28;20042;-72
2023/04/11 07:10:09;;;;;;;2.00;0.70;;;10.90;99.90;;;;;;4992137;28;20026;-72
2023/04/11 07:12:35;;;;;;;3.50;0.60;;;10.90;99.90;;;;;;4992539;28;20487;-72
2023/04/11 07:15:03;;;;;;;4.97;0.90;;;11.00;99.90;;;;;;4992013;28;20034;-71
2023/04/11 07:17:29;;;;;;;1.95;0.60;;;11.00;99.90;;;;;;4992443;28;20173;-71
2023/04/11 07:19:55;;;;;;;2.58;0.65;;;10.90;99.90;;;;;;4993235;28;20030;-71
2023/04/11 07:22:22;;;;;;;2.85;0.80;;;10.80;99.90;;;;;;4994224;28;20037;-71
2023/04/11 07:24:51;;;;;;;4.28;1.02;;;10.80;99.90;;;;;;4992418;28;20034;-72
2023/04/11 07:27:17;;;;;;;2.08;0.63;;;10.80;99.90;;;;;;4993115;28;20041;-72
2023/04/11 07:29:43;;;;;;;5.53;0.75;;;11.00;99.90;;;;;;4992511;28;20026;-72
2023/04/11 07:32:09;;;;;;;3.60;0.82;;;11.20;99.90;;;;;;4993036;28;20361;-71
2023/04/11 07:34:34;;;;;;;3.55;0.80;;;11.30;99.90;;;;;;4993585;28;20030;-72
2023/04/11 07:37:00;;;;;;;5.90;0.82;;;11.30;99.90;;;;;;4992623;28;20060;-72
2023/04/11 07:39:26;;;;;;;2.78;0.63;;;11.30;99.90;;;;;;4992297;28;20487;-71
2023/04/11 07:41:55;;;;;;;6.07;0.80;;;11.30;99.90;;;;;;4993380;28;20061;-72
2023/04/11 07:44:21;;;;;;;3.10;0.60;;;11.30;99.90;;;;;;4993189;28;20026;-71
2023/04/11 07:46:46;;;;;;;3.88;0.77;;;11.30;99.90;;;;;;4993729;28;20423;-71
2023/04/11 07:49:12;;;;;;;2.03;0.60;;;11.30;99.90;;;;;;4991554;28;20472;-72
2023/04/11 07:51:38;;;;;;;6.90;0.95;;;11.40;99.90;;;;;;4993432;28;20023;-72
2023/04/11 07:54:04;;;;;;;6.72;1.00;;;11.50;99.90;;;;;;4991427;28;20057;-71
2023/04/11 07:56:29;;;;;;;1.58;0.70;;;11.50;99.90;;;;;;4993245;28;20456;-72
2023/04/11 07:58:57;;;;;;;2.20;0.77;;;11.50;99.90;;;;;;4993225;28;20161;-72
2023/04/11 08:01:24;;;;;;;3.03;1.10;;;11.50;99.90;;;;;;4993337;28;20030;-72
2023/04/11 08:03:54;;;;;;;7.07;1.33;;;11.50;99.90;;;;;;4993278;28;20042;-72
2023/04/11 08:06:20;;;;;;;4.43;0.80;;;11.60;99.90;;;;;;4991291;28;20459;-72
2023/04/11 08:08:46;;;;;;;5.65;0.98;;;11.70;99.90;;;;;;4992998;28;20033;-72
2023/04/11 08:11:13;;;;;;;5.88;0.90;;;11.70;99.90;;;;;;4992345;28;20035;-71
2023/04/11 08:13:38;;;;;;;5.65;1.17;;;11.80;99.90;;;;;;4991546;28;20038;-72
2023/04/11 08:16:09;;;;;;;6.40;0.93;;;11.80;99.90;;;;;;4991643;28;20034;-72
2023/04/11 08:18:36;;;;;;;9.73;2.40;;;11.80;99.90;;;;;;4994653;28;20485;-72
2023/04/11 08:21:02;;;;;;;4.40;0.85;;;11.90;99.90;;;;;;4996573;28;20027;-71
2023/04/11 08:23:28;;;;;;;3.85;0.70;;;11.80;99.90;;;;;;4995796;28;20459;-72
2023/04/11 08:25:55;;;;;;;3.97;0.75;;;11.70;99.90;;;;;;4995750;28;20037;-72
2023/04/11 08:28:21;;;;;;;3.85;0.65;;;11.70;99.90;;;;;;4995122;28;20031;-72
2023/04/11 08:30:47;;;;;;;5.60;1.30;;;11.70;99.90;;;;;;4997010;28;20026;-72
2023/04/11 08:33:14;;;;;;;2.80;0.47;;;11.70;99.90;;;;;;4996368;28;20030;-71
2023/04/11 08:35:43;;;;;;;4.13;0.70;;;11.60;99.90;;;;;;4996812;28;20069;-72
2023/04/11 08:38:09;;;;;;;4.20;0.60;;;11.50;99.90;;;;;;4996231;28;20488;-71
2023/04/11 08:40:35;;;;;;;5.05;0.60;;;11.60;99.90;;;;;;4996727;28;20057;-72
2023/04/11 08:43:01;;;;;;;4.75;1.17;;;11.60;99.90;;;;;;4995882;28;20055;-71
2023/04/11 08:45:27;;;;;;;1.60;0.73;;;11.60;99.90;;;;;;4995402;28;20112;-71
2023/04/11 08:47:53;;;;;;;3.00;0.65;;;11.60;99.90;;;;;;5011672;28;20064;-71
2023/04/11 08:50:18;;;;;;;8.18;1.45;;;11.60;99.90;;;;;;4995830;28;20062;-71
2023/04/11 08:52:47;;;;;;;6.68;1.38;;;11.60;99.90;;;;;;4994920;28;20026;-71
2023/04/11 08:55:12;;;;;;;3.55;0.80;;;11.70;99.90;;;;;;4996037;28;20027;-71
2023/04/11 08:57:38;;;;;;;3.35;0.88;;;11.70;99.90;;;;;;4996126;28;20034;-71
2023/04/11 09:00:16;;;;;;;9.35;0.90;;;11.70;99.90;;;;;;4995854;28;20038;-71
2023/04/11 09:03:01;;;;;;;5.07;0.93;;;11.80;99.90;;;;;;5011769;28;20037;-71
2023/04/11 09:05:29;;;;;;;2.65;0.73;;;12.00;99.90;;;;;;4995118;28;20023;-71
2023/04/11 09:07:56;;;;;;;6.45;0.90;;;12.20;99.90;;;;;;4995050;28;20041;-72
2023/04/11 09:10:22;;;;;;;4.50;1.13;;;12.40;99.90;;;;;;4995736;28;20023;-72
2023/04/11 09:12:48;;;;;;;7.97;1.00;;;12.40;99.90;;;;;;4996539;28;20034;-72
2023/04/11 09:15:20;;;;;;;2.60;0.95;;;12.40;99.90;;;;;;4994316;28;20037;-72
2023/04/11 09:17:46;;;;;;;4.57;0.70;;;12.50;99.90;;;;;;4996111;28;20046;-72
2023/04/11 09:20:17;;;;;;;6.43;1.67;;;12.50;99.90;;;;;;4995470;28;20026;-72
2023/04/11 09:22:43;;;;;;;4.78;1.05;;;12.50;99.90;;;;;;4994772;28;20070;-72
2023/04/11 09:25:08;;;;;;;7.45;0.68;;;12.50;99.90;;;;;;4995440;28;20080;-72
2023/04/11 09:27:34;;;;;;;6.20;1.05;;;12.40;99.90;;;;;;4994843;28;20045;-72
2023/04/11 09:30:01;;;;;;;5.65;1.20;;;12.30;99.90;;;;;;4994487;28;20022;-72
2023/04/11 09:32:32;;;;;;;4.65;1.27;;;12.50;99.90;;;;;;4993963;28;20066;-72
2023/04/11 09:35:08;;;;;;;5.72;1.20;;;12.60;99.90;;;;;;4994223;28;20026;-73
2023/04/11 09:37:55;;;;;;;3.90;0.90;;;12.60;99.90;;;;;;4976283;28;20034;-72
2023/04/11 09:40:25;;;;;;;2.65;0.70;;;12.60;99.90;;;;;;4975531;28;20034;-72
2023/04/11 09:43:02;;;;;;;4.13;1.40;;;12.50;99.90;;;;;;4990871;28;20121;-72
2023/04/11 09:45:31;;;;;;;4.72;1.20;;;12.50;99.90;;;;;;4975569;28;20027;-72
2023/04/11 09:47:58;;;;;;;4.88;1.27;;;12.40;99.90;;;;;;4974986;28;20082;-72
2023/04/11 09:50:25;;;;;;;6.43;1.00;;;12.50;99.90;;;;;;4975483;28;20453;-72
2023/04/11 09:52:51;;;;;;;6.63;0.80;;;12.60;98.60;;;;;;4976403;28;20464;-72
2023/04/11 09:55:22;;;;;;;3.05;0.73;;;12.70;98.80;;;;;;4974166;28;20027;-72
2023/04/11 09:57:49;;;;;;;5.80;0.90;;;12.80;97.60;;;;;;4974708;28;20400;-72
2023/04/11 10:00:19;;;;;;;3.90;0.95;;;12.80;97.20;;;;;;4975300;28;20027;-72
2023/04/11 10:02:48;;;;;;;3.38;0.70;;;12.80;98.10;;;;;;4975915;28;20101;-72
2023/04/11 10:05:15;;;;;;;5.97;0.80;;;12.90;99.30;;;;;;4973786;28;20442;-71
2023/04/11 10:07:47;;;;;;;6.30;0.90;;;12.90;99.80;;;;;;4975908;28;20376;-71
2023/04/11 10:10:18;;;;;;;4.60;0.90;;;12.80;99.90;;;;;;4975211;28;20031;-71
2023/04/11 10:12:44;;;;;;;2.25;0.73;;;12.80;99.90;;;;;;4975171;28;20043;-71
2023/04/11 10:15:11;;;;;;;5.68;0.95;;;12.90;99.90;;;;;;4990039;28;20034;-71
2023/04/11 10:17:36;;;;;;;5.43;1.20;;;13.00;99.90;;;;;;4975588;28;20031;-71
2023/04/11 10:20:34;;;;;;;4.85;0.95;;;13.10;99.90;;;;;;4974282;28;20050;-71
2023/04/11 10:23:00;;;;;;;5.45;0.80;;;13.10;99.90;;;;;;4975413;28;20023;-71
2023/04/11 10:25:27;;;;;;;4.10;1.02;;;13.10;99.90;;;;;;4974838;28;20027;-73
2023/04/11 10:28:03;;;;;;;6.18;1.00;;;13.10;99.10;;;;;;4975112;28;20408;-71
2023/04/11 10:30:38;;;;;;;4.63;0.70;;;13.30;98.50;;;;;;4989737;28;20381;-71
2023/04/11 10:33:16;;;;;;;6.35;1.23;;;13.30;96.40;;;;;;4975323;28;20027;-72
2023/04/11 10:36:11;;;;;;;6.07;0.88;;;13.40;98.20;;;;;;4974087;28;20122;-71
2023/04/11 10:38:42;;;;;;;3.65;0.70;;;13.40;99.40;;;;;;4974222;28;20038;-71
2023/04/11 10:41:16;;;;;;;5.43;1.10;;;13.40;99.90;;;;;;4973879;28;20039;-71
2023/04/11 10:43:42;;;;;;;8.23;1.15;;;13.40;99.90;;;;;;4973580;28;20495;-71
2023/04/11 10:46:22;;;;;;;4.10;0.68;;;13.40;99.80;;;;;;4973276;28;20061;-70
2023/04/11 10:48:57;;;;;;;2.95;0.80;;;13.20;98.90;;;;;;4975052;28;20042;-71
2023/04/11 10:51:25;;;;;;;6.63;0.70;;;13.10;98.00;;;;;;4973138;28;20464;-71
2023/04/11 10:53:51;;;;;;;6.80;0.98;;;13.10;98.00;;;;;;4974918;28;20029;-72
2023/04/11 10:56:56;;;;;;;3.10;0.90;;;13.10;98.40;;;;;;4974197;28;20038;-71
2023/04/11 10:59:31;;;;;;;4.60;0.82;;;13.10;97.90;;;;;;4972422;28;20497;-71
2023/04/11 11:01:58;;;;;;;7.55;1.00;;;13.10;97.90;;;;;;4974886;28;20027;-71
2023/04/11 11:04:37;;;;;;;4.53;1.05;;;13.30;98.20;;;;;;4972869;28;20137;-71
2023/04/11 11:07:06;;;;;;;2.58;0.73;;;13.30;95.60;;;;;;4974646;28;20038;-72
2023/04/11 11:09:32;;;;;;;3.60;0.80;;;13.40;95.00;;;;;;4974021;28;20027;-72
2023/04/11 11:12:08;;;;;;;8.05;0.93;;;13.40;93.60;;;;;;4974684;28;20042;-72
2023/04/11 11:14:34;;;;;;;5.00;0.88;;;13.40;94.10;;;;;;4989365;28;20035;-72
2023/04/11 11:17:01;;;;;;;2.03;0.47;;;13.40;93.90;;;;;;4974501;28;20392;-71
2023/04/11 11:19:27;;;;;;;3.58;0.60;;;13.40;93.30;;;;;;4988759;28;20030;-72
2023/04/11 11:21:53;;;;;;;2.88;0.95;;;13.40;93.30;;;;;;4974495;28;20248;-71
2023/04/11 11:24:25;;;;;;;3.35;0.88;;;13.50;94.20;;;;;;4972206;28;20085;-71
2023/04/11 11:26:52;;;;;;;;;;;13.50;94.60;;;;;;4974749;28;20030;-71
2023/04/11 11:29:30;;;;;;;3.33;1.00;;;13.50;95.30;;;;;;4988720;28;19906;-71
2023/04/11 11:31:56;;;;;;;2.95;0.68;;;13.40;94.80;;;;;;4974332;28;20372;-71
2023/04/11 11:34:34;;;;;;;4.05;0.60;;;13.30;95.80;;;;;;4973600;28;20023;-71
2023/04/11 11:37:05;;;;;;;3.85;0.90;;;13.20;97.40;;;;;;4974204;28;20030;-71
2023/04/11 11:39:31;;;;;;;7.20;1.15;;;13.00;99.90;;;;;;4972350;28;20206;-72
2023/04/11 11:41:57;;;;;;;4.97;0.77;;;12.70;99.90;;;;;;4973679;28;20496;-72
2023/04/11 11:44:27;;;;;;;3.35;0.60;;;12.60;99.90;;;;;;4973541;28;20023;-71
2023/04/11 11:47:04;;;;;;;2.50;0.50;;;12.50;99.90;;;;;;4988960;28;20045;-72
2023/04/11 11:49:50;;;;;;;4.55;0.52;;;12.60;99.90;;;;;;4972246;28;20035;-72
2023/04/11 11:52:32;;;;;;;4.32;1.20;;;12.70;99.90;;;;;;4973256;28;20033;-71
2023/04/11 11:54:58;;;;;;;4.38;0.77;;;12.90;99.90;;;;;;4973635;28;20472;-72
2023/04/11 11:57:23;;;;;;;5.68;0.80;;;12.80;99.90;;;;;;4973339;28;20169;-72
2023/04/11 11:59:56;;;;;;;7.00;0.80;;;12.80;99.90;;;;;;4988810;28;20391;-72
2023/04/11 12:02:24;;;;;;;3.60;0.77;;;12.80;99.90;;;;;;4973615;28;20027;-72
2023/04/11 12:04:58;;;;;;;5.85;0.68;;;12.60;99.90;;;;;;4972262;28;20027;-71
2023/04/11 12:07:24;;;;;;;3.58;0.88;;;12.20;99.90;;;;;;4973295;28;20031;-71
2023/04/11 12:10:06;;;;;;;5.40;0.75;;;12.10;99.90;;;;;;4973892;28;20026;-72
2023/04/11 12:12:37;;;;;;;5.30;1.50;;;12.30;99.90;;;;;;4972973;28;20335;-71
2023/04/11 12:15:10;;;;;;;3.17;0.80;;;12.40;99.90;;;;;;4972469;28;20038;-71
2023/04/11 12:17:36;;;;;;;3.83;0.60;;;12.60;99.90;;;;;;4973089;28;20060;-72
2023/04/11 12:20:09;;;;;;;6.28;0.77;;;12.60;99.90;;;;;;4972381;28;20388;-71
2023/04/11 12:22:36;;;;;;;3.47;0.68;;;13.00;99.90;;;;;;4973131;28;20085;-72
2023/04/11 12:25:12;;;;;;;4.82;0.90;;;13.10;99.90;;;;;;4973654;28;20045;-71
2023/04/11 12:27:40;;;;;;;4.88;0.75;;;13.20;99.90;;;;;;4973646;28;20027;-71
2023/04/11 12:30:08;;;;;;;4.93;0.77;;;13.30;99.90;;;;;;4973601;28;20023;-72
2023/04/11 12:32:34;;;;;;;3.22;0.77;;;13.50;99.90;;;;;;4971763;28;20660;-72
2023/04/11 12:35:00;;;;;;;2.42;0.75;;;13.70;99.90;;;;;;4988502;28;20361;-71
2023/04/11 12:37:26;;;;;;;4.15;0.73;;;13.80;99.90;;;;;;4972852;28;20031;-71
2023/04/11 12:39:52;;;;;;;2.88;0.70;;;13.50;99.00;;;;;;4973240;28;20042;-71
2023/04/11 12:42:18;;;;;;;2.95;0.88;;;13.30;99.10;;;;;;4972787;28;20051;-71
2023/04/11 12:44:43;;;;;;;1.77;0.60;;;13.10;99.80;;;;;;4972328;28;20487;-71
2023/04/11 12:47:09;;;;;;;4.88;0.73;;;13.10;99.90;;;;;;4972261;28;20057;-72
2023/04/11 12:49:35;;;;;;;3.95;0.73;;;12.90;99.90;;;;;;4971570;28;20041;-71